Startpagina
METAR-TAF:

METAR-TAF

Vliegvelden :

Aéroport de Sion

Sion, Zwitserland

breedte: 46-13N, lengte: 007-20E, hoogte: 482 m

Actueel weer

Dit bericht is 19 minuten geleden gemaakt, om 23:50 UTC
Wind 4 kt uit het oosten
Temperatuur 21°C
Vochtigheid 64%
Druk 1019 hPa
Zicht 10 km of meer
geen wolken onder 1500 m en geen cumulonimbus

METAR: LSGS 142350Z AUTO 09004KT CAVOK 21/14 Q1019

Tijdstip: 02:09 (00:09 UTC)

Verwachting

Dit bericht is 9 uur en het 44 minuten geleden gemaakt, om 14:25 UTC
Verwachting geldig van 14 om 15 UTC tot 14 om 24 UTC
Wind 12 kt uit het westzuidwesten
Zicht 10 km of meer
Weinig wolken op 10000 ft
Wijzigt naar
van 14 om 18 UTC tot 14 om 20 UTC
Wind 2 kt uit variabele richting
Zicht 10 km of meer
geen wolken onder 1500 m en geen cumulonimbus

TAF: LSGS 141425Z 1415/1424 25012KT 9999 FEW100 BECMG 1418/1420 VRB02KT CAVOK

Waarnemingen en weersverwachtingen van meer dan 4000 vliegvelden (METAR en TAF).

De beschikbare stations zijn de gele en rode punten op de kaart.

Ga met uw muis naar het station om de naam te zien.

Klik dan om waarnemingen en weersverwachtingen te zien.

kaart wijzigen: klik op de groene knoppen met een zwart kruis om in te zoomen, op de groene knop met een streepje om uit te zoomen of op de groene pijlen voor aangrenzende kaarten.


METAR-TAF: